createdAt,value
2023-03-23T16:00:32.161Z,99085.41
2023-03-23T16:03:53.994Z,99078.72
2023-03-23T16:06:57.290Z,99080.94
2023-03-23T16:09:58.759Z,99086.59
2023-03-23T16:13:00.308Z,99097.41
2023-03-23T16:16:02.953Z,99086.25
2023-03-23T16:19:05.576Z,99093.78
2023-03-23T16:22:07.166Z,99093.63
2023-03-23T16:25:09.736Z,99093.56
2023-03-23T16:28:13.091Z,99089.72
2023-03-23T16:31:14.722Z,99083.78
2023-03-23T16:34:16.134Z,99069.81
2023-03-23T16:37:18.106Z,99062.25
2023-03-23T16:40:20.980Z,99057.41
2023-03-23T16:43:22.497Z,99080.81
2023-03-23T16:46:23.936Z,99071.41
2023-03-23T16:49:25.835Z,99079.56
2023-03-23T16:52:27.452Z,99073.50
2023-03-23T16:55:31.245Z,99078.19
2023-03-23T16:58:32.690Z,99072.47
2023-03-23T17:01:34.128Z,99070.41
2023-03-23T17:04:35.643Z,99079.50
2023-03-23T17:07:39.275Z,99078.97
2023-03-23T17:10:41.625Z,99076.97
2023-03-23T17:13:43.137Z,99076.53
2023-03-23T17:16:44.699Z,99091.63
2023-03-23T17:19:46.207Z,99077.34
2023-03-23T17:22:48.094Z,99082.84
2023-03-23T17:25:50.353Z,99079.59
2023-03-23T17:28:51.791Z,99086.34
2023-03-23T17:31:53.497Z,99089.97
2023-03-23T17:34:55.261Z,99082.22
2023-03-23T17:37:57.150Z,99084.91
2023-03-23T17:40:59.387Z,99084.69
2023-03-23T17:44:00.984Z,99088.38
2023-03-23T17:47:03.110Z,99089.56
2023-03-23T17:50:11.361Z,99079.81
2023-03-23T17:53:13.971Z,99090.38
2023-03-23T17:56:15.791Z,99090.59
2023-03-23T17:59:17.246Z,99093.66
2023-03-23T18:02:19.251Z,99093.03
2023-03-23T18:05:20.738Z,99102.59
2023-03-23T18:08:22.178Z,99107.25
2023-03-23T18:11:23.631Z,99101.94
2023-03-23T18:14:25.336Z,99087.78
2023-03-23T18:17:26.968Z,99087.56
2023-03-23T18:20:28.417Z,99092.00
2023-03-23T18:23:37.429Z,99094.66
2023-03-23T18:26:42.709Z,99087.56
2023-03-23T18:29:44.206Z,99095.09
2023-03-23T18:32:45.972Z,99085.72
2023-03-23T18:35:48.193Z,99097.31
2023-03-23T18:38:50.721Z,99090.97
2023-03-23T18:41:52.170Z,99091.41
2023-03-23T18:44:54.843Z,99089.16
2023-03-23T18:47:56.523Z,99087.97
2023-03-23T18:50:59.922Z,99093.06
2023-03-23T18:54:01.352Z,99090.00
2023-03-23T18:57:02.915Z,99092.00
2023-03-23T19:00:04.793Z,99083.50
2023-03-23T19:03:06.591Z,99079.84
2023-03-23T19:06:16.213Z,99083.88
2023-03-23T19:09:18.799Z,99077.97
2023-03-23T19:12:21.057Z,99071.31
2023-03-23T19:15:24.346Z,99068.06
2023-03-23T19:18:26.026Z,99066.22
2023-03-23T19:21:29.827Z,99071.09
2023-03-23T19:24:33.263Z,99069.25
2023-03-23T19:30:47.495Z,99061.13
2023-03-23T19:33:49.022Z,99063.19
2023-03-23T19:36:54.373Z,99056.03
2023-03-23T19:39:59.269Z,99057.28
2023-03-23T19:43:02.452Z,99052.97
2023-03-23T19:46:04.369Z,99052.59
2023-03-23T19:49:06.281Z,99047.94
2023-03-23T19:52:12.647Z,99049.78
2023-03-23T19:55:15.605Z,99041.03
2023-03-23T19:58:17.123Z,99046.09
2023-03-23T20:01:19.084Z,99044.44
2023-03-23T20:04:21.187Z,99036.97
2023-03-23T20:07:25.578Z,99037.78
2023-03-23T20:10:30.030Z,99032.69
2023-03-23T20:13:32.442Z,99034.72
2023-03-23T20:16:34.924Z,99033.53
2023-03-23T20:19:37.155Z,99031.72
2023-03-23T20:22:38.613Z,99020.53
2023-03-23T20:25:40.256Z,99024.16
2023-03-23T20:28:42.607Z,99022.94
2023-03-23T20:31:46.145Z,99013.59
2023-03-23T20:34:50.841Z,99012.38
2023-03-23T20:37:52.625Z,99007.28
2023-03-23T20:40:56.880Z,99007.72
2023-03-23T20:43:59.670Z,99015.25
2023-03-23T20:47:05.004Z,99007.34
2023-03-23T20:50:08.665Z,98996.38
2023-03-23T20:53:10.142Z,98997.97
2023-03-23T20:56:11.603Z,98981.13
2023-03-23T20:59:14.164Z,98983.38
2023-03-23T21:02:18.076Z,98980.72
2023-03-23T21:05:20.370Z,98970.94
2023-03-23T21:08:22.208Z,98978.06
2023-03-23T21:11:26.219Z,98972.56
2023-03-23T21:14:27.763Z,98966.88
2023-03-23T21:17:29.257Z,98968.88
2023-03-23T21:20:30.903Z,98964.41
2023-03-23T21:23:33.592Z,98958.16
2023-03-23T21:26:35.527Z,98950.59
2023-03-23T21:29:38.733Z,98943.88
2023-03-23T21:32:40.532Z,98934.97
2023-03-23T21:35:42.023Z,98927.41
2023-03-23T21:38:44.540Z,98921.38
2023-03-23T21:41:49.599Z,98927.06
2023-03-23T21:44:51.193Z,98924.19
2023-03-23T21:47:57.389Z,98934.38
2023-03-23T21:51:05.825Z,98933.16
2023-03-23T21:54:08.055Z,98931.53
2023-03-23T21:57:09.739Z,98926.13
2023-03-23T22:00:14.885Z,98913.47
2023-03-23T22:03:19.069Z,98916.50
2023-03-23T22:06:23.539Z,98909.38
2023-03-23T22:09:25.046Z,98905.16
2023-03-23T22:12:26.558Z,98906.16
2023-03-23T22:15:29.387Z,98901.13
2023-03-23T22:18:31.295Z,98905.16
2023-03-23T22:21:32.749Z,98902.34
2023-03-23T22:24:34.273Z,98911.66
2023-03-23T22:27:35.713Z,98910.88
2023-03-23T22:30:37.614Z,98920.00
2023-03-23T22:33:39.944Z,98923.03
2023-03-23T22:36:41.631Z,98927.09
2023-03-23T22:39:43.041Z,98921.81
2023-03-23T22:42:44.499Z,98927.50
2023-03-23T22:45:46.097Z,98933.78
2023-03-23T22:48:47.578Z,98929.94
2023-03-23T22:51:49.004Z,98916.53
2023-03-23T22:54:50.902Z,98891.97
2023-03-23T22:57:52.377Z,98875.13
2023-03-23T23:01:00.711Z,98868.66
2023-03-23T23:04:02.888Z,98865.00
2023-03-23T23:07:12.861Z,98865.19
2023-03-23T23:10:14.752Z,98879.22
2023-03-23T23:13:16.785Z,98875.13
2023-03-23T23:16:19.433Z,98882.00
2023-03-23T23:19:20.864Z,98871.50
2023-03-23T23:22:22.249Z,98863.19
2023-03-23T23:25:23.805Z,98859.94
2023-03-23T23:28:25.463Z,98865.22
2023-03-23T23:31:32.254Z,98855.28
2023-03-23T23:34:34.733Z,98849.94
2023-03-23T23:37:36.163Z,98849.97
2023-03-23T23:40:38.811Z,98842.22
2023-03-23T23:43:40.391Z,98842.03
2023-03-23T23:46:41.809Z,98847.69
2023-03-23T23:49:43.216Z,98840.22
2023-03-23T23:52:44.764Z,98828.03
2023-03-23T23:55:46.269Z,98828.78
2023-03-23T23:58:48.723Z,98832.19
